createdAt,value
2022-10-17T00:02:57.641Z,27.11
2022-10-17T00:06:03.035Z,26.98
2022-10-17T00:09:06.025Z,27.05
2022-10-17T00:12:09.105Z,26.81
2022-10-17T00:15:17.001Z,26.66
2022-10-17T00:18:20.117Z,26.85
2022-10-17T00:21:24.081Z,26.79
2022-10-17T00:24:27.135Z,26.57
2022-10-17T00:27:30.459Z,26.51
2022-10-17T00:30:33.812Z,26.50
2022-10-17T00:33:38.216Z,26.43
2022-10-17T00:36:41.293Z,26.49
2022-10-17T00:39:44.370Z,26.34
2022-10-17T00:42:47.562Z,26.19
2022-10-17T00:45:50.761Z,26.29
2022-10-17T00:48:55.906Z,26.19
2022-10-17T00:52:02.062Z,26.06
2022-10-17T00:55:11.800Z,26.02
2022-10-17T00:58:14.851Z,25.85
2022-10-17T01:01:18.129Z,25.93
2022-10-17T01:04:21.158Z,25.92
2022-10-17T01:07:24.351Z,25.85
2022-10-17T01:10:39.224Z,25.57
2022-10-17T01:13:59.339Z,25.47
2022-10-17T01:17:11.408Z,25.52
2022-10-17T01:20:43.652Z,25.46
2022-10-17T01:24:07.976Z,25.16
2022-10-17T01:27:38.574Z,25.38
2022-10-17T01:31:03.256Z,25.49
2022-10-17T01:34:11.402Z,25.39
2022-10-17T01:37:20.515Z,25.28
2022-10-17T01:40:37.188Z,25.21
2022-10-17T01:43:52.437Z,25.06
2022-10-17T01:47:01.140Z,25.35
2022-10-17T01:50:25.204Z,25.10
2022-10-17T01:53:34.994Z,25.02
2022-10-17T01:56:39.097Z,24.85
2022-10-17T01:59:43.868Z,24.81
2022-10-17T02:02:47.826Z,24.93
2022-10-17T02:05:51.113Z,24.71
2022-10-17T02:08:54.134Z,24.61
2022-10-17T02:12:28.168Z,24.76
2022-10-17T02:15:37.328Z,25.08
2022-10-17T02:18:53.995Z,24.81
2022-10-17T02:22:21.495Z,24.62
2022-10-17T02:25:30.361Z,24.73
2022-10-17T02:28:37.070Z,24.66
2022-10-17T02:31:52.113Z,24.57
2022-10-17T02:34:57.012Z,24.69
2022-10-17T02:38:01.086Z,24.68
2022-10-17T02:41:07.945Z,24.83
2022-10-17T02:44:11.547Z,24.52
2022-10-17T02:47:37.633Z,24.41
2022-10-17T02:51:23.258Z,24.35
2022-10-17T02:54:43.102Z,24.58
2022-10-17T02:57:55.834Z,24.37
2022-10-17T03:00:59.746Z,24.15
2022-10-17T03:04:10.878Z,24.32
2022-10-17T03:07:14.500Z,24.28
2022-10-17T03:10:18.280Z,24.36
2022-10-17T03:13:21.290Z,24.34
2022-10-17T03:16:24.375Z,24.44
2022-10-17T03:19:27.695Z,24.23
2022-10-17T03:22:31.208Z,24.43
2022-10-17T03:25:34.547Z,24.48
2022-10-17T03:28:37.929Z,24.32
2022-10-17T03:31:40.952Z,24.57
2022-10-17T03:34:44.015Z,24.43
2022-10-17T03:37:47.058Z,24.47
2022-10-17T03:40:56.806Z,24.45
2022-10-17T03:43:59.806Z,24.51
2022-10-17T03:47:02.857Z,24.46
2022-10-17T03:50:06.370Z,24.47
2022-10-17T03:53:09.449Z,24.02
2022-10-17T03:56:18.108Z,24.44
2022-10-17T03:59:21.242Z,24.29
2022-10-17T04:02:24.230Z,24.26
2022-10-17T04:05:28.418Z,24.64
2022-10-17T04:08:31.798Z,24.72
2022-10-17T04:11:35.095Z,24.61
2022-10-17T04:14:38.368Z,24.60
2022-10-17T04:17:41.441Z,24.47
2022-10-17T04:20:44.658Z,24.26
2022-10-17T04:23:47.771Z,24.16
2022-10-17T04:26:51.063Z,24.34
2022-10-17T04:29:54.066Z,24.45
2022-10-17T04:32:57.169Z,24.35
2022-10-17T04:36:02.300Z,24.54
2022-10-17T04:39:05.391Z,24.25
2022-10-17T04:42:08.790Z,24.32
2022-10-17T04:45:12.145Z,24.38
2022-10-17T04:48:15.266Z,24.47
2022-10-17T04:51:21.973Z,24.48
2022-10-17T04:54:28.967Z,24.01
2022-10-17T04:57:34.616Z,24.11
2022-10-17T05:00:37.681Z,23.87
2022-10-17T05:03:40.813Z,23.95
2022-10-17T05:06:43.878Z,23.94
2022-10-17T05:09:46.950Z,24.48
2022-10-17T05:12:50.907Z,23.95
2022-10-17T05:15:54.279Z,23.88
2022-10-17T05:18:58.812Z,23.98
2022-10-17T05:22:01.820Z,23.88
2022-10-17T05:25:05.081Z,23.48
2022-10-17T05:28:08.062Z,23.60
2022-10-17T05:31:12.214Z,23.52
2022-10-17T05:34:15.208Z,23.45
2022-10-17T05:37:18.213Z,23.47
2022-10-17T05:40:23.867Z,23.30
2022-10-17T05:43:27.515Z,23.29
2022-10-17T05:46:30.507Z,23.20
2022-10-17T05:49:44.978Z,23.21
2022-10-17T05:52:55.737Z,23.32
2022-10-17T05:56:03.885Z,23.29
2022-10-17T05:59:07.046Z,23.21
2022-10-17T06:02:12.730Z,22.89
2022-10-17T06:05:15.889Z,23.04
2022-10-17T06:08:19.567Z,23.26
2022-10-17T06:11:22.588Z,23.21
2022-10-17T06:14:25.796Z,23.19
2022-10-17T06:17:29.802Z,23.07
2022-10-17T06:20:32.864Z,23.22
2022-10-17T06:23:36.132Z,23.19
2022-10-17T06:26:40.453Z,22.96
2022-10-17T06:29:43.464Z,22.89
2022-10-17T06:32:46.701Z,22.93
2022-10-17T06:38:31.639Z,22.60
2022-10-17T06:41:34.777Z,22.73
2022-10-17T06:44:38.870Z,22.47
2022-10-17T06:47:41.997Z,22.62
2022-10-17T06:50:45.382Z,23.02
2022-10-17T06:53:48.329Z,22.90
2022-10-17T06:56:51.409Z,22.79
2022-10-17T06:59:54.424Z,22.95
2022-10-17T07:02:57.462Z,22.89
2022-10-17T07:06:00.514Z,22.93
2022-10-17T07:09:03.788Z,22.62
2022-10-17T07:12:06.879Z,22.49
2022-10-17T07:15:10.284Z,22.76
2022-10-17T07:18:13.709Z,22.68
2022-10-17T07:21:16.893Z,22.80
2022-10-17T07:24:20.007Z,22.63
2022-10-17T07:27:23.160Z,22.45
2022-10-17T07:30:26.467Z,22.52
2022-10-17T07:33:32.248Z,22.51
2022-10-17T07:36:35.323Z,22.22
2022-10-17T07:39:38.414Z,22.59
2022-10-17T07:42:41.451Z,22.40
2022-10-17T07:45:44.556Z,22.55
2022-10-17T07:48:47.640Z,22.45
2022-10-17T07:51:50.778Z,22.31
2022-10-17T07:54:53.825Z,22.35
2022-10-17T07:58:00.088Z,22.51
2022-10-17T08:01:10.752Z,22.72
2022-10-17T08:04:16.924Z,22.63
2022-10-17T08:07:24.116Z,22.28
2022-10-17T08:10:32.123Z,22.55
2022-10-17T08:13:35.787Z,22.92
2022-10-17T08:16:38.929Z,22.86
2022-10-17T08:19:42.021Z,22.79
2022-10-17T08:22:52.939Z,22.99
2022-10-17T08:25:56.250Z,23.02
2022-10-17T08:28:59.388Z,23.29
2022-10-17T08:32:04.525Z,22.99
2022-10-17T08:35:10.131Z,22.77
2022-10-17T08:38:13.505Z,22.52
2022-10-17T08:41:44.937Z,22.87
2022-10-17T08:44:58.592Z,23.01
2022-10-17T08:48:05.297Z,23.17
2022-10-17T08:51:16.820Z,23.45
2022-10-17T08:54:25.212Z,23.29
2022-10-17T08:57:28.512Z,23.28
2022-10-17T09:00:32.772Z,23.23
2022-10-17T09:04:05.863Z,23.26
2022-10-17T09:07:23.781Z,23.03
2022-10-17T09:10:46.528Z,22.78
2022-10-17T09:14:10.140Z,22.74
2022-10-17T09:17:42.342Z,22.77
2022-10-17T09:20:50.189Z,22.70
2022-10-17T09:24:03.963Z,22.95
2022-10-17T09:27:40.721Z,23.00
2022-10-17T09:30:46.968Z,22.71
2022-10-17T09:33:54.627Z,22.86
2022-10-17T09:37:02.248Z,22.73
2022-10-17T09:40:07.422Z,22.58
2022-10-17T09:43:17.105Z,22.86
2022-10-17T09:46:38.276Z,22.50
2022-10-17T09:49:43.395Z,22.79
2022-10-17T09:52:46.512Z,22.55
2022-10-17T09:55:55.811Z,22.53
2022-10-17T09:58:59.691Z,22.56
2022-10-17T10:02:09.968Z,22.70
2022-10-17T10:05:20.171Z,22.52
2022-10-17T10:08:24.300Z,22.42
2022-10-17T10:11:45.065Z,22.37
2022-10-17T10:14:49.175Z,22.27
2022-10-17T10:17:54.292Z,22.32
2022-10-17T10:21:24.584Z,22.06
2022-10-17T10:24:30.826Z,22.43
2022-10-17T10:27:34.391Z,22.40
2022-10-17T10:30:39.801Z,22.11
2022-10-17T10:33:49.430Z,22.12
2022-10-17T10:37:17.011Z,22.09
2022-10-17T10:40:42.239Z,22.29
2022-10-17T10:43:48.091Z,22.25
2022-10-17T10:47:26.753Z,22.24
2022-10-17T10:50:49.910Z,22.24
2022-10-17T10:54:10.894Z,22.28
2022-10-17T10:57:18.843Z,22.19
2022-10-17T11:00:25.802Z,22.16
2022-10-17T11:04:02.615Z,22.47
2022-10-17T11:07:28.907Z,22.30
2022-10-17T11:10:34.416Z,22.25
2022-10-17T11:14:15.698Z,22.32
2022-10-17T11:17:33.641Z,22.25
2022-10-17T11:21:07.126Z,22.27
2022-10-17T11:24:25.206Z,21.89
2022-10-17T11:27:32.236Z,21.94
2022-10-17T11:31:05.743Z,21.61
2022-10-17T11:34:26.082Z,21.72
2022-10-17T11:37:35.173Z,21.78
2022-10-17T11:40:41.546Z,21.83
2022-10-17T11:44:15.247Z,21.42
2022-10-17T11:47:28.120Z,21.49
2022-10-17T11:54:12.223Z,21.74
2022-10-17T11:57:33.590Z,21.65
2022-10-17T12:00:54.700Z,21.59
2022-10-17T12:04:06.674Z,21.61
2022-10-17T12:07:28.981Z,21.53
2022-10-17T12:10:41.707Z,21.51
2022-10-17T12:13:55.464Z,21.76
2022-10-17T12:17:00.579Z,21.73
2022-10-17T12:20:21.947Z,21.66
2022-10-17T12:23:29.709Z,21.40
2022-10-17T12:26:32.844Z,21.33
2022-10-17T12:29:35.943Z,21.18
2022-10-17T12:33:05.784Z,21.05
2022-10-17T12:36:28.350Z,21.39
2022-10-17T12:39:31.474Z,21.23
2022-10-17T12:42:47.086Z,21.05
2022-10-17T12:45:52.735Z,20.99
2022-10-17T12:49:04.556Z,20.83
2022-10-17T12:52:16.484Z,21.05
2022-10-17T12:55:20.256Z,21.27
2022-10-17T12:58:23.961Z,21.07
2022-10-17T13:01:32.647Z,21.12
2022-10-17T13:04:39.244Z,21.01
2022-10-17T13:07:44.401Z,21.03
2022-10-17T13:10:54.038Z,20.59
2022-10-17T13:13:59.922Z,20.73
2022-10-17T13:17:05.966Z,20.68
2022-10-17T13:20:27.495Z,20.75
2022-10-17T13:23:38.339Z,20.48
2022-10-17T13:26:46.270Z,20.41
2022-10-17T13:29:49.268Z,20.02
2022-10-17T13:32:52.381Z,19.88
2022-10-17T13:36:00.336Z,19.84
2022-10-17T13:39:12.454Z,19.52
2022-10-17T13:42:25.026Z,19.58
2022-10-17T13:45:34.966Z,19.67
2022-10-17T13:48:38.958Z,19.79
2022-10-17T13:51:50.617Z,19.75
2022-10-17T13:54:54.512Z,19.26
2022-10-17T13:57:57.549Z,19.10
2022-10-17T14:01:00.590Z,18.92
2022-10-17T14:04:16.581Z,18.73
2022-10-17T14:07:29.400Z,18.66
2022-10-17T14:10:39.837Z,18.61
2022-10-17T14:13:42.892Z,18.57
2022-10-17T14:16:46.143Z,18.58
2022-10-17T14:20:14.075Z,18.39
2022-10-17T14:23:40.243Z,18.07
2022-10-17T14:26:54.716Z,18.23
2022-10-17T14:30:00.033Z,18.02
2022-10-17T14:33:05.415Z,17.46
2022-10-17T14:36:08.536Z,17.10
2022-10-17T14:39:20.631Z,17.20
2022-10-17T14:42:24.181Z,16.80
2022-10-17T14:45:35.917Z,17.38
2022-10-17T14:48:41.857Z,17.11
2022-10-17T14:52:24.913Z,16.74
2022-10-17T14:55:30.359Z,16.16
2022-10-17T14:58:34.429Z,16.49
2022-10-17T15:01:37.565Z,16.67
2022-10-17T15:04:41.674Z,16.99
2022-10-17T15:07:44.738Z,17.19
2022-10-17T15:10:48.975Z,17.13
2022-10-17T15:13:52.510Z,17.53
2022-10-17T15:16:55.562Z,17.98
2022-10-17T15:19:59.073Z,17.88
2022-10-17T15:23:03.016Z,18.03
2022-10-17T15:26:17.143Z,18.22
2022-10-17T15:29:20.146Z,18.43
2022-10-17T15:32:23.226Z,18.16
2022-10-17T15:35:26.444Z,18.32
2022-10-17T15:38:29.436Z,18.47
2022-10-17T15:41:33.537Z,18.25
2022-10-17T15:44:36.543Z,18.58
2022-10-17T15:47:39.956Z,18.71
2022-10-17T15:50:42.981Z,18.63
2022-10-17T15:53:46.394Z,18.96
2022-10-17T15:56:54.605Z,18.89
2022-10-17T15:59:59.899Z,19.06
2022-10-17T16:03:02.928Z,18.85
2022-10-17T16:06:08.506Z,19.48
2022-10-17T16:09:13.823Z,19.54
2022-10-17T16:12:24.133Z,20.06
2022-10-17T16:15:28.518Z,20.26
2022-10-17T16:18:31.485Z,20.61
2022-10-17T16:21:36.552Z,20.11
2022-10-17T16:24:39.550Z,20.59
2022-10-17T16:27:42.607Z,20.26
2022-10-17T16:30:45.641Z,20.65
2022-10-17T16:33:50.206Z,21.09
2022-10-17T16:36:53.248Z,20.59
2022-10-17T16:39:56.276Z,20.95
2022-10-17T16:42:59.267Z,20.83
2022-10-17T16:46:04.730Z,21.23
2022-10-17T16:49:08.075Z,21.02
2022-10-17T16:52:12.832Z,20.74
2022-10-17T16:55:15.998Z,20.82
2022-10-17T16:58:19.047Z,20.69
2022-10-17T17:01:27.198Z,21.07
2022-10-17T17:04:30.313Z,21.02
2022-10-17T17:07:35.465Z,20.93
2022-10-17T17:10:38.564Z,20.88
2022-10-17T17:13:41.990Z,20.87
2022-10-17T17:16:45.046Z,20.73
2022-10-17T17:19:48.171Z,20.71
2022-10-17T17:22:51.204Z,21.40
2022-10-17T17:25:59.128Z,21.53
2022-10-17T17:29:02.410Z,21.70
2022-10-17T17:32:05.566Z,21.66
2022-10-17T17:35:09.038Z,21.38
2022-10-17T17:38:12.044Z,21.10
2022-10-17T17:41:19.771Z,21.46
2022-10-17T17:44:23.148Z,21.26
2022-10-17T17:47:31.535Z,21.01
2022-10-17T17:50:37.891Z,21.24
2022-10-17T17:53:41.339Z,21.36
2022-10-17T17:56:44.380Z,21.26
2022-10-17T17:59:50.083Z,21.10
2022-10-17T18:02:53.065Z,20.99
2022-10-17T18:05:56.082Z,20.92
2022-10-17T18:08:59.796Z,20.95
2022-10-17T18:12:02.816Z,21.07
2022-10-17T18:15:06.742Z,20.77
2022-10-17T18:18:10.044Z,20.83
2022-10-17T18:21:14.151Z,20.69
2022-10-17T18:24:17.341Z,20.75
2022-10-17T18:27:21.314Z,20.93
2022-10-17T18:30:27.141Z,21.27
2022-10-17T18:33:32.428Z,20.98
2022-10-17T18:36:36.154Z,20.85
2022-10-17T18:39:39.135Z,21.18
2022-10-17T18:42:45.235Z,21.47
2022-10-17T18:45:48.217Z,21.04
2022-10-17T18:48:51.860Z,21.14
2022-10-17T18:51:54.854Z,20.95
2022-10-17T18:54:57.897Z,20.91
2022-10-17T18:58:00.912Z,20.70
2022-10-17T19:01:09.899Z,21.20
2022-10-17T19:04:13.342Z,21.22
2022-10-17T19:07:16.383Z,21.10
2022-10-17T19:10:19.448Z,21.29
2022-10-17T19:13:23.022Z,21.10
2022-10-17T19:16:34.294Z,20.77
2022-10-17T19:19:37.520Z,20.70
2022-10-17T19:22:40.594Z,20.84
2022-10-17T19:25:43.760Z,21.02
2022-10-17T19:28:46.910Z,21.34
2022-10-17T19:31:50.155Z,21.45
2022-10-17T19:34:53.371Z,21.73
2022-10-17T19:37:56.415Z,21.85
2022-10-17T19:44:03.667Z,21.74
2022-10-17T19:47:06.688Z,22.06
2022-10-17T19:50:09.911Z,22.19
2022-10-17T19:53:12.906Z,22.12
2022-10-17T19:56:16.671Z,21.93
2022-10-17T19:59:19.732Z,22.80
2022-10-17T20:02:22.925Z,22.84
2022-10-17T20:05:28.088Z,22.67
2022-10-17T20:08:31.573Z,22.12
2022-10-17T20:11:34.629Z,22.50
2022-10-17T20:14:41.047Z,22.63
2022-10-17T20:17:44.559Z,22.52
2022-10-17T20:20:47.654Z,22.31
2022-10-17T20:23:51.299Z,22.73
2022-10-17T20:26:56.468Z,22.42
2022-10-17T20:29:59.500Z,22.42
2022-10-17T20:33:02.592Z,22.48
2022-10-17T20:36:10.102Z,22.42
2022-10-17T20:39:15.271Z,22.60
2022-10-17T20:42:18.269Z,22.52
2022-10-17T20:45:32.656Z,22.61
2022-10-17T20:48:44.434Z,22.63
2022-10-17T20:51:48.286Z,22.86
2022-10-17T20:54:53.373Z,22.56
2022-10-17T20:57:56.566Z,22.88
2022-10-17T21:01:01.142Z,23.24
2022-10-17T21:07:28.120Z,22.93
2022-10-17T21:10:35.231Z,22.77
2022-10-17T21:13:39.376Z,22.96
2022-10-17T21:16:42.581Z,23.16
2022-10-17T21:19:45.639Z,23.70
2022-10-17T21:22:48.698Z,23.28
2022-10-17T21:25:51.892Z,23.09
2022-10-17T21:28:55.230Z,22.96
2022-10-17T21:31:58.313Z,22.80
2022-10-17T21:35:01.485Z,22.65
2022-10-17T21:38:04.541Z,22.31
2022-10-17T21:41:09.638Z,22.87
2022-10-17T21:44:18.932Z,23.16
2022-10-17T21:47:23.273Z,22.99
2022-10-17T21:50:29.672Z,22.84
2022-10-17T21:53:33.361Z,22.85
2022-10-17T21:56:36.549Z,22.89
2022-10-17T21:59:39.588Z,22.97
2022-10-17T22:02:42.678Z,22.72
2022-10-17T22:05:46.443Z,22.93
2022-10-17T22:08:49.904Z,23.46
2022-10-17T22:11:56.323Z,23.27
2022-10-17T22:14:59.284Z,23.04
2022-10-17T22:18:02.396Z,23.04
2022-10-17T22:21:13.152Z,22.65
2022-10-17T22:24:18.200Z,22.64
2022-10-17T22:27:21.273Z,22.03
2022-10-17T22:30:24.356Z,22.28
2022-10-17T22:33:29.505Z,22.44
2022-10-17T22:36:32.565Z,22.35
2022-10-17T22:39:35.593Z,22.28
2022-10-17T22:42:38.867Z,22.23
2022-10-17T22:45:44.008Z,22.11
2022-10-17T22:48:47.048Z,22.17
2022-10-17T22:51:50.077Z,22.10
2022-10-17T22:54:54.064Z,22.26
2022-10-17T22:57:57.112Z,21.93
2022-10-17T23:01:00.520Z,21.96
2022-10-17T23:04:03.566Z,21.90
2022-10-17T23:07:06.632Z,21.84
2022-10-17T23:10:10.141Z,21.93
2022-10-17T23:13:13.337Z,21.53
2022-10-17T23:16:16.356Z,21.73
2022-10-17T23:19:19.542Z,21.34
2022-10-17T23:22:22.708Z,21.20
2022-10-17T23:25:29.237Z,21.47
2022-10-17T23:28:32.581Z,21.23
2022-10-17T23:31:36.088Z,21.42
2022-10-17T23:34:39.100Z,21.34
2022-10-17T23:37:42.349Z,20.96
2022-10-17T23:40:45.370Z,20.51
2022-10-17T23:43:49.133Z,20.32
2022-10-17T23:46:52.120Z,20.32
2022-10-17T23:49:55.227Z,20.18
2022-10-17T23:52:58.505Z,20.20
2022-10-17T23:56:01.594Z,20.00
2022-10-17T23:59:05.070Z,19.69
